sensor_id;sensor_type;location;lat;lon;timestamp;temperature;humidity
7399;DHT22;3740;50.700;7.184;2023-02-27T00:01:28;0.40;99.90
7399;DHT22;3740;50.700;7.184;2023-02-27T00:03:55;0.40;99.90
7399;DHT22;3740;50.700;7.184;2023-02-27T00:06:21;0.30;99.90
7399;DHT22;3740;50.700;7.184;2023-02-27T00:08:46;0.40;99.90
7399;DHT22;3740;50.700;7.184;2023-02-27T00:11:12;0.30;99.90
7399;DHT22;3740;50.700;7.184;2023-02-27T00:13:37;0.30;99.90
7399;DHT22;3740;50.700;7.184;2023-02-27T00:16:04;0.40;99.90
7399;DHT22;3740;50.700;7.184;2023-02-27T00:18:30;0.40;99.90
7399;DHT22;3740;50.700;7.184;2023-02-27T00:20:56;0.30;99.90
7399;DHT22;3740;50.700;7.184;2023-02-27T00:23:21;0.40;99.90
7399;DHT22;3740;50.700;7.184;2023-02-27T00:25:47;0.40;99.90
7399;DHT22;3740;50.700;7.184;2023-02-27T00:28:12;0.40;99.90
7399;DHT22;3740;50.700;7.184;2023-02-27T00:30:38;0.30;99.90
7399;DHT22;3740;50.700;7.184;2023-02-27T00:33:04;0.30;99.90
7399;DHT22;3740;50.700;7.184;2023-02-27T00:35:29;0.30;99.90
7399;DHT22;3740;50.700;7.184;2023-02-27T00:37:55;0.20;99.90
7399;DHT22;3740;50.700;7.184;2023-02-27T00:40:20;0.10;99.90
7399;DHT22;3740;50.700;7.184;2023-02-27T00:42:46;0.10;99.90
7399;DHT22;3740;50.700;7.184;2023-02-27T00:45:13;0.10;99.90
7399;DHT22;3740;50.700;7.184;2023-02-27T00:47:39;0.10;99.90
7399;DHT22;3740;50.700;7.184;2023-02-27T00:50:05;0.10;99.90
7399;DHT22;3740;50.700;7.184;2023-02-27T00:52:31;0.10;99.90
7399;DHT22;3740;50.700;7.184;2023-02-27T00:54:58;0.00;99.90
7399;DHT22;3740;50.700;7.184;2023-02-27T00:57:24;0.00;99.90
7399;DHT22;3740;50.700;7.184;2023-02-27T00:59:49;0.00;99.90
7399;DHT22;3740;50.700;7.184;2023-02-27T01:02:15;0.00;99.90
7399;DHT22;3740;50.700;7.184;2023-02-27T01:04:40;0.00;99.90
7399;DHT22;3740;50.700;7.184;2023-02-27T01:07:06;0.00;99.90
7399;DHT22;3740;50.700;7.184;2023-02-27T01:09:32;0.00;99.90
7399;DHT22;3740;50.700;7.184;2023-02-27T01:11:57;0.20;99.90
7399;DHT22;3740;50.700;7.184;2023-02-27T01:14:23;0.30;99.90
7399;DHT22;3740;50.700;7.184;2023-02-27T01:16:49;0.30;99.90
7399;DHT22;3740;50.700;7.184;2023-02-27T01:19:14;0.30;99.90
7399;DHT22;3740;50.700;7.184;2023-02-27T01:21:40;0.30;99.90
7399;DHT22;3740;50.700;7.184;2023-02-27T01:24:07;0.30;99.90
7399;DHT22;3740;50.700;7.184;2023-02-27T01:26:33;0.30;99.90
7399;DHT22;3740;50.700;7.184;2023-02-27T01:28:58;0.20;99.90
7399;DHT22;3740;50.700;7.184;2023-02-27T01:31:24;0.10;99.90
7399;DHT22;3740;50.700;7.184;2023-02-27T01:33:49;0.10;99.90
7399;DHT22;3740;50.700;7.184;2023-02-27T01:36:15;0.10;99.90
7399;DHT22;3740;50.700;7.184;2023-02-27T01:38:40;0.00;99.90
7399;DHT22;3740;50.700;7.184;2023-02-27T01:41:06;0.10;99.90
7399;DHT22;3740;50.700;7.184;2023-02-27T01:43:32;0.00;99.90
7399;DHT22;3740;50.700;7.184;2023-02-27T01:45:58;0.00;99.90
7399;DHT22;3740;50.700;7.184;2023-02-27T01:48:29;0.00;99.90
7399;DHT22;3740;50.700;7.184;2023-02-27T01:51:06;-0.10;99.90
7399;DHT22;3740;50.700;7.184;2023-02-27T01:53:34;0.00;99.90
7399;DHT22;3740;50.700;7.184;2023-02-27T01:56:13;-0.10;99.90
7399;DHT22;3740;50.700;7.184;2023-02-27T01:58:40;-0.10;99.90
7399;DHT22;3740;50.700;7.184;2023-02-27T02:01:06;-0.10;99.90
7399;DHT22;3740;50.700;7.184;2023-02-27T02:03:47;-0.10;99.90
7399;DHT22;3740;50.700;7.184;2023-02-27T02:06:13;-0.10;99.90
7399;DHT22;3740;50.700;7.184;2023-02-27T02:08:44;-0.10;99.90
7399;DHT22;3740;50.700;7.184;2023-02-27T02:11:12;-0.10;99.90
7399;DHT22;3740;50.700;7.184;2023-02-27T02:13:39;-0.10;99.90
7399;DHT22;3740;50.700;7.184;2023-02-27T02:30:21;-0.40;99.90
7399;DHT22;3740;50.700;7.184;2023-02-27T02:43:59;-0.10;99.90
7399;DHT22;3740;50.700;7.184;2023-02-27T02:51:45;-0.30;99.90
7399;DHT22;3740;50.700;7.184;2023-02-27T02:56:50;-0.30;99.90
7399;DHT22;3740;50.700;7.184;2023-02-27T02:59:49;-0.30;99.90
7399;DHT22;3740;50.700;7.184;2023-02-27T03:02:20;-0.30;99.90
7399;DHT22;3740;50.700;7.184;2023-02-27T03:10:03;-0.40;99.90
7399;DHT22;3740;50.700;7.184;2023-02-27T03:12:32;-0.40;99.90
7399;DHT22;3740;50.700;7.184;2023-02-27T03:15:05;-0.50;99.90
7399;DHT22;3740;50.700;7.184;2023-02-27T03:17:44;-0.50;99.90
7399;DHT22;3740;50.700;7.184;2023-02-27T03:20:16;-0.40;99.90
7399;DHT22;3740;50.700;7.184;2023-02-27T03:22:46;-0.30;99.90
7399;DHT22;3740;50.700;7.184;2023-02-27T03:25:13;-0.40;99.90
7399;DHT22;3740;50.700;7.184;2023-02-27T03:27:49;-0.40;99.90
7399;DHT22;3740;50.700;7.184;2023-02-27T03:30:34;-0.40;99.90
7399;DHT22;3740;50.700;7.184;2023-02-27T03:33:06;-0.40;99.90
7399;DHT22;3740;50.700;7.184;2023-02-27T03:36:14;-0.50;99.90
7399;DHT22;3740;50.700;7.184;2023-02-27T03:38:47;-0.40;99.90
7399;DHT22;3740;50.700;7.184;2023-02-27T03:44:01;-0.60;99.90
7399;DHT22;3740;50.700;7.184;2023-02-27T03:46:27;-0.60;99.90
7399;DHT22;3740;50.700;7.184;2023-02-27T03:48:53;-0.50;99.90
7399;DHT22;3740;50.700;7.184;2023-02-27T03:51:20;-0.50;99.90
7399;DHT22;3740;50.700;7.184;2023-02-27T03:54:08;-0.60;99.90
7399;DHT22;3740;50.700;7.184;2023-02-27T03:56:41;-0.50;99.90
7399;DHT22;3740;50.700;7.184;2023-02-27T03:59:08;-0.60;99.90
7399;DHT22;3740;50.700;7.184;2023-02-27T04:01:34;-0.60;99.90
7399;DHT22;3740;50.700;7.184;2023-02-27T04:04:04;-0.60;99.90
7399;DHT22;3740;50.700;7.184;2023-02-27T04:06:32;-0.60;99.90
7399;DHT22;3740;50.700;7.184;2023-02-27T04:09:27;-0.70;99.90
7399;DHT22;3740;50.700;7.184;2023-02-27T04:15:04;-0.70;99.90
7399;DHT22;3740;50.700;7.184;2023-02-27T04:17:41;-0.70;99.90
7399;DHT22;3740;50.700;7.184;2023-02-27T04:21:03;-0.70;99.90
7399;DHT22;3740;50.700;7.184;2023-02-27T04:23:11;-0.70;99.90
7399;DHT22;3740;50.700;7.184;2023-02-27T04:28:24;-0.80;99.90
7399;DHT22;3740;50.700;7.184;2023-02-27T04:36:22;-0.80;99.90
7399;DHT22;3740;50.700;7.184;2023-02-27T04:38:56;-0.80;99.90
7399;DHT22;3740;50.700;7.184;2023-02-27T04:41:32;-0.80;99.90
7399;DHT22;3740;50.700;7.184;2023-02-27T04:44:01;-0.80;99.90
7399;DHT22;3740;50.700;7.184;2023-02-27T04:46:28;-0.80;99.90
7399;DHT22;3740;50.700;7.184;2023-02-27T04:49:03;-0.80;99.90
7399;DHT22;3740;50.700;7.184;2023-02-27T04:51:37;-0.80;99.90
7399;DHT22;3740;50.700;7.184;2023-02-27T04:54:08;-0.70;99.90
7399;DHT22;3740;50.700;7.184;2023-02-27T04:56:43;-0.70;99.90
7399;DHT22;3740;50.700;7.184;2023-02-27T04:59:16;-0.70;99.90
7399;DHT22;3740;50.700;7.184;2023-02-27T05:01:55;-0.70;99.90
7399;DHT22;3740;50.700;7.184;2023-02-27T05:04:24;-0.80;99.90
7399;DHT22;3740;50.700;7.184;2023-02-27T05:06:53;-0.80;99.90
7399;DHT22;3740;50.700;7.184;2023-02-27T05:09:47;-0.80;99.90
7399;DHT22;3740;50.700;7.184;2023-02-27T05:12:24;-0.80;99.90
7399;DHT22;3740;50.700;7.184;2023-02-27T05:15:10;-0.70;99.90
7399;DHT22;3740;50.700;7.184;2023-02-27T05:20:11;-0.70;99.90
7399;DHT22;3740;50.700;7.184;2023-02-27T05:22:59;-0.70;99.90
7399;DHT22;3740;50.700;7.184;2023-02-27T05:25:46;-0.70;99.90
7399;DHT22;3740;50.700;7.184;2023-02-27T05:28:34;-0.70;99.90
7399;DHT22;3740;50.700;7.184;2023-02-27T05:31:27;-0.70;99.90
7399;DHT22;3740;50.700;7.184;2023-02-27T05:36:30;-0.70;99.90
7399;DHT22;3740;50.700;7.184;2023-02-27T05:39:04;-0.70;99.90
7399;DHT22;3740;50.700;7.184;2023-02-27T05:41:35;-0.70;99.90
7399;DHT22;3740;50.700;7.184;2023-02-27T05:44:09;-0.70;99.90
7399;DHT22;3740;50.700;7.184;2023-02-27T05:46:39;-0.70;99.90
7399;DHT22;3740;50.700;7.184;2023-02-27T05:49:18;-0.70;99.90
7399;DHT22;3740;50.700;7.184;2023-02-27T05:51:47;-0.70;99.90
7399;DHT22;3740;50.700;7.184;2023-02-27T05:54:38;-0.70;99.90
7399;DHT22;3740;50.700;7.184;2023-02-27T05:57:08;-0.70;99.90
7399;DHT22;3740;50.700;7.184;2023-02-27T05:59:53;-0.70;99.90
7399;DHT22;3740;50.700;7.184;2023-02-27T06:02:19;-0.80;99.90
7399;DHT22;3740;50.700;7.184;2023-02-27T06:04:45;-0.80;99.90
7399;DHT22;3740;50.700;7.184;2023-02-27T06:07:12;-0.90;99.90
7399;DHT22;3740;50.700;7.184;2023-02-27T06:09:39;-0.90;99.90
7399;DHT22;3740;50.700;7.184;2023-02-27T06:12:05;-0.90;99.90
7399;DHT22;3740;50.700;7.184;2023-02-27T06:14:31;-0.90;99.90
7399;DHT22;3740;50.700;7.184;2023-02-27T06:16:56;-0.90;99.90
7399;DHT22;3740;50.700;7.184;2023-02-27T06:19:22;-0.80;99.90
7399;DHT22;3740;50.700;7.184;2023-02-27T06:21:47;-0.80;99.90
7399;DHT22;3740;50.700;7.184;2023-02-27T06:24:14;-0.80;99.90
7399;DHT22;3740;50.700;7.184;2023-02-27T06:26:39;-0.80;99.90
7399;DHT22;3740;50.700;7.184;2023-02-27T06:29:05;-0.80;99.90
7399;DHT22;3740;50.700;7.184;2023-02-27T06:31:31;-0.80;99.90
7399;DHT22;3740;50.700;7.184;2023-02-27T06:33:56;-0.80;99.90
7399;DHT22;3740;50.700;7.184;2023-02-27T06:36:22;-0.70;99.90
7399;DHT22;3740;50.700;7.184;2023-02-27T06:38:48;-0.70;99.90
7399;DHT22;3740;50.700;7.184;2023-02-27T06:41:14;-0.70;99.90
7399;DHT22;3740;50.700;7.184;2023-02-27T06:43:40;-0.60;99.90
7399;DHT22;3740;50.700;7.184;2023-02-27T06:46:05;-0.30;99.90
7399;DHT22;3740;50.700;7.184;2023-02-27T06:48:31;-0.30;99.90
7399;DHT22;3740;50.700;7.184;2023-02-27T06:50:57;-0.40;99.90
7399;DHT22;3740;50.700;7.184;2023-02-27T06:53:23;-0.50;99.90
7399;DHT22;3740;50.700;7.184;2023-02-27T06:55:49;-0.60;99.90
7399;DHT22;3740;50.700;7.184;2023-02-27T06:58:16;-0.70;99.90
7399;DHT22;3740;50.700;7.184;2023-02-27T07:00:42;-0.80;99.90
7399;DHT22;3740;50.700;7.184;2023-02-27T07:03:08;-0.90;99.90
7399;DHT22;3740;50.700;7.184;2023-02-27T07:05:34;-0.80;99.90
7399;DHT22;3740;50.700;7.184;2023-02-27T07:08:00;-0.80;99.90
7399;DHT22;3740;50.700;7.184;2023-02-27T07:10:27;-0.80;99.90
7399;DHT22;3740;50.700;7.184;2023-02-27T07:12:53;-0.80;99.90
7399;DHT22;3740;50.700;7.184;2023-02-27T07:15:19;-0.70;99.90
7399;DHT22;3740;50.700;7.184;2023-02-27T07:17:45;-0.70;99.90
7399;DHT22;3740;50.700;7.184;2023-02-27T07:20:11;-0.60;99.90
7399;DHT22;3740;50.700;7.184;2023-02-27T07:22:37;-0.60;99.90
7399;DHT22;3740;50.700;7.184;2023-02-27T07:25:04;-0.60;99.90
7399;DHT22;3740;50.700;7.184;2023-02-27T07:27:30;-0.60;99.90
7399;DHT22;3740;50.700;7.184;2023-02-27T07:29:55;-0.50;99.90
7399;DHT22;3740;50.700;7.184;2023-02-27T07:32:21;-0.50;99.90
7399;DHT22;3740;50.700;7.184;2023-02-27T07:34:47;-0.50;99.90
7399;DHT22;3740;50.700;7.184;2023-02-27T07:37:12;-0.40;99.90
7399;DHT22;3740;50.700;7.184;2023-02-27T07:39:38;-0.30;99.90
7399;DHT22;3740;50.700;7.184;2023-02-27T07:42:04;-0.30;99.90
7399;DHT22;3740;50.700;7.184;2023-02-27T07:44:29;-0.20;99.90
7399;DHT22;3740;50.700;7.184;2023-02-27T07:46:55;-0.20;99.90
7399;DHT22;3740;50.700;7.184;2023-02-27T07:49:20;-0.20;99.90
7399;DHT22;3740;50.700;7.184;2023-02-27T07:51:46;0.00;99.90
7399;DHT22;3740;50.700;7.184;2023-02-27T07:54:12;0.00;99.90
7399;DHT22;3740;50.700;7.184;2023-02-27T07:56:37;0.10;99.90
7399;DHT22;3740;50.700;7.184;2023-02-27T07:59:03;0.20;99.90
7399;DHT22;3740;50.700;7.184;2023-02-27T08:01:29;0.30;99.90
7399;DHT22;3740;50.700;7.184;2023-02-27T08:03:54;0.50;99.90
7399;DHT22;3740;50.700;7.184;2023-02-27T08:06:21;0.60;99.90
7399;DHT22;3740;50.700;7.184;2023-02-27T08:08:46;0.60;99.90
7399;DHT22;3740;50.700;7.184;2023-02-27T08:11:12;0.70;99.90
7399;DHT22;3740;50.700;7.184;2023-02-27T08:13:37;0.80;99.90
7399;DHT22;3740;50.700;7.184;2023-02-27T08:16:03;0.80;99.90
7399;DHT22;3740;50.700;7.184;2023-02-27T08:18:29;0.90;99.90
7399;DHT22;3740;50.700;7.184;2023-02-27T08:20:55;0.90;99.90
7399;DHT22;3740;50.700;7.184;2023-02-27T08:23:21;1.00;99.90
7399;DHT22;3740;50.700;7.184;2023-02-27T08:25:47;1.10;99.90
7399;DHT22;3740;50.700;7.184;2023-02-27T08:28:13;1.10;99.90
7399;DHT22;3740;50.700;7.184;2023-02-27T08:30:38;1.40;99.90
7399;DHT22;3740;50.700;7.184;2023-02-27T08:33:04;1.40;99.90
7399;DHT22;3740;50.700;7.184;2023-02-27T08:35:30;1.00;99.90
7399;DHT22;3740;50.700;7.184;2023-02-27T08:37:56;0.90;99.90
7399;DHT22;3740;50.700;7.184;2023-02-27T08:40:21;0.90;99.90
7399;DHT22;3740;50.700;7.184;2023-02-27T08:42:47;1.00;99.90
7399;DHT22;3740;50.700;7.184;2023-02-27T08:45:12;0.90;99.90
7399;DHT22;3740;50.700;7.184;2023-02-27T08:47:38;0.90;99.90
7399;DHT22;3740;50.700;7.184;2023-02-27T08:50:04;0.90;99.90
7399;DHT22;3740;50.700;7.184;2023-02-27T08:52:31;1.00;99.90
7399;DHT22;3740;50.700;7.184;2023-02-27T08:54:56;1.10;99.90
7399;DHT22;3740;50.700;7.184;2023-02-27T08:57:22;1.10;99.90
7399;DHT22;3740;50.700;7.184;2023-02-27T08:59:47;1.20;99.90
7399;DHT22;3740;50.700;7.184;2023-02-27T09:02:13;1.30;99.90
7399;DHT22;3740;50.700;7.184;2023-02-27T09:04:38;1.40;99.90
7399;DHT22;3740;50.700;7.184;2023-02-27T09:07:04;1.40;99.90
7399;DHT22;3740;50.700;7.184;2023-02-27T09:09:30;1.50;99.90
7399;DHT22;3740;50.700;7.184;2023-02-27T09:11:56;1.70;99.90
7399;DHT22;3740;50.700;7.184;2023-02-27T09:14:22;1.90;99.90
7399;DHT22;3740;50.700;7.184;2023-02-27T09:16:48;2.00;99.90
7399;DHT22;3740;50.700;7.184;2023-02-27T09:19:14;1.80;99.90
7399;DHT22;3740;50.700;7.184;2023-02-27T09:21:40;1.90;99.90
7399;DHT22;3740;50.700;7.184;2023-02-27T09:24:07;2.10;99.90
7399;DHT22;3740;50.700;7.184;2023-02-27T09:26:32;2.30;99.90
7399;DHT22;3740;50.700;7.184;2023-02-27T09:28:58;2.00;99.90
7399;DHT22;3740;50.700;7.184;2023-02-27T09:31:23;1.90;99.90
7399;DHT22;3740;50.700;7.184;2023-02-27T09:33:49;2.00;99.90
7399;DHT22;3740;50.700;7.184;2023-02-27T09:36:15;2.20;99.90
7399;DHT22;3740;50.700;7.184;2023-02-27T09:38:40;2.30;99.90
7399;DHT22;3740;50.700;7.184;2023-02-27T09:41:16;2.60;99.90
7399;DHT22;3740;50.700;7.184;2023-02-27T09:43:48;2.80;99.90
7399;DHT22;3740;50.700;7.184;2023-02-27T09:46:18;2.80;99.90
7399;DHT22;3740;50.700;7.184;2023-02-27T09:49:00;2.90;99.90
7399;DHT22;3740;50.700;7.184;2023-02-27T09:51:27;3.00;99.90
7399;DHT22;3740;50.700;7.184;2023-02-27T09:53:57;3.00;99.90
7399;DHT22;3740;50.700;7.184;2023-02-27T09:56:51;3.10;99.90
7399;DHT22;3740;50.700;7.184;2023-02-27T10:04:35;3.40;99.90
7399;DHT22;3740;50.700;7.184;2023-02-27T10:09:54;3.80;99.90
7399;DHT22;3740;50.700;7.184;2023-02-27T10:15:15;4.30;99.90
7399;DHT22;3740;50.700;7.184;2023-02-27T10:17:48;4.40;99.90
7399;DHT22;3740;50.700;7.184;2023-02-27T10:20:36;4.80;99.90
7399;DHT22;3740;50.700;7.184;2023-02-27T10:23:12;5.10;99.60
7399;DHT22;3740;50.700;7.184;2023-02-27T10:25:43;5.30;99.00
7399;DHT22;3740;50.700;7.184;2023-02-27T10:28:18;5.60;99.90
7399;DHT22;3740;50.700;7.184;2023-02-27T10:30:48;6.10;99.70
7399;DHT22;3740;50.700;7.184;2023-02-27T10:33:28;6.90;99.00
7399;DHT22;3740;50.700;7.184;2023-02-27T10:35:56;9.20;97.40
7399;DHT22;3740;50.700;7.184;2023-02-27T10:38:31;12.90;85.00
7399;DHT22;3740;50.700;7.184;2023-02-27T10:40:58;15.20;71.00
7399;DHT22;3740;50.700;7.184;2023-02-27T10:43:24;17.60;57.80
7399;DHT22;3740;50.700;7.184;2023-02-27T10:45:50;18.30;54.50
7399;DHT22;3740;50.700;7.184;2023-02-27T10:48:17;20.10;50.90
7399;DHT22;3740;50.700;7.184;2023-02-27T10:50:48;20.30;50.20
7399;DHT22;3740;50.700;7.184;2023-02-27T10:53:22;21.10;49.20
7399;DHT22;3740;50.700;7.184;2023-02-27T10:56:03;22.40;47.00
7399;DHT22;3740;50.700;7.184;2023-02-27T10:58:33;21.30;43.30
7399;DHT22;3740;50.700;7.184;2023-02-27T11:01:00;20.40;44.00
7399;DHT22;3740;50.700;7.184;2023-02-27T11:03:31;20.70;43.60
7399;DHT22;3740;50.700;7.184;2023-02-27T11:06:20;20.50;44.20
7399;DHT22;3740;50.700;7.184;2023-02-27T11:11:35;21.20;42.30
7399;DHT22;3740;50.700;7.184;2023-02-27T11:14:37;22.50;42.90
7399;DHT22;3740;50.700;7.184;2023-02-27T11:17:01;20.80;41.40
7399;DHT22;3740;50.700;7.184;2023-02-27T11:19:36;20.20;42.60
7399;DHT22;3740;50.700;7.184;2023-02-27T11:22:06;17.80;42.20
7399;DHT22;3740;50.700;7.184;2023-02-27T11:24:32;17.10;44.60
7399;DHT22;3740;50.700;7.184;2023-02-27T11:27:01;18.50;44.40
7399;DHT22;3740;50.700;7.184;2023-02-27T11:29:32;17.80;44.50
7399;DHT22;3740;50.700;7.184;2023-02-27T11:32:12;17.90;43.70
7399;DHT22;3740;50.700;7.184;2023-02-27T11:34:45;18.90;44.00
7399;DHT22;3740;50.700;7.184;2023-02-27T11:39:49;19.90;43.10
7399;DHT22;3740;50.700;7.184;2023-02-27T11:42:36;18.90;42.30
7399;DHT22;3740;50.700;7.184;2023-02-27T11:45:13;17.70;41.80
7399;DHT22;3740;50.700;7.184;2023-02-27T11:47:53;15.60;42.60
7399;DHT22;3740;50.700;7.184;2023-02-27T11:55:37;16.40;44.10
7399;DHT22;3740;50.700;7.184;2023-02-27T11:58:23;16.50;46.50
7399;DHT22;3740;50.700;7.184;2023-02-27T12:03:39;15.90;43.90
7399;DHT22;3740;50.700;7.184;2023-02-27T12:06:25;15.70;45.10
7399;DHT22;3740;50.700;7.184;2023-02-27T12:09:04;15.50;46.50
7399;DHT22;3740;50.700;7.184;2023-02-27T12:11:38;16.10;46.80
7399;DHT22;3740;50.700;7.184;2023-02-27T12:14:15;16.10;45.50
7399;DHT22;3740;50.700;7.184;2023-02-27T12:16:49;15.80;43.90
7399;DHT22;3740;50.700;7.184;2023-02-27T12:21:57;17.40;45.30
7399;DHT22;3740;50.700;7.184;2023-02-27T12:24:45;18.00;45.10
7399;DHT22;3740;50.700;7.184;2023-02-27T12:27:19;17.50;42.30
7399;DHT22;3740;50.700;7.184;2023-02-27T12:29:52;17.40;43.50
7399;DHT22;3740;50.700;7.184;2023-02-27T12:32:23;17.60;43.50
7399;DHT22;3740;50.700;7.184;2023-02-27T12:35:00;16.60;43.40
7399;DHT22;3740;50.700;7.184;2023-02-27T12:37:30;16.70;44.40
7399;DHT22;3740;50.700;7.184;2023-02-27T12:39:59;16.60;44.50
7399;DHT22;3740;50.700;7.184;2023-02-27T12:45:50;17.00;44.30
7399;DHT22;3740;50.700;7.184;2023-02-27T12:48:50;16.70;43.30
7399;DHT22;3740;50.700;7.184;2023-02-27T12:51:43;16.40;44.20
7399;DHT22;3740;50.700;7.184;2023-02-27T12:56:51;14.70;45.10
7399;DHT22;3740;50.700;7.184;2023-02-27T13:00:25;15.00;45.50
7399;DHT22;3740;50.700;7.184;2023-02-27T13:02:55;15.30;44.80
7399;DHT22;3740;50.700;7.184;2023-02-27T13:13:33;14.80;45.50
7399;DHT22;3740;50.700;7.184;2023-02-27T13:16:06;14.00;46.60
7399;DHT22;3740;50.700;7.184;2023-02-27T13:18:50;13.90;47.10
7399;DHT22;3740;50.700;7.184;2023-02-27T13:26:35;14.50;45.70
7399;DHT22;3740;50.700;7.184;2023-02-27T13:29:03;14.80;47.00
7399;DHT22;3740;50.700;7.184;2023-02-27T13:36:42;14.90;45.90
7399;DHT22;3740;50.700;7.184;2023-02-27T13:40:01;15.00;44.70
7399;DHT22;3740;50.700;7.184;2023-02-27T13:44:56;14.80;44.60
7399;DHT22;3740;50.700;7.184;2023-02-27T13:49:54;14.70;45.70
7399;DHT22;3740;50.700;7.184;2023-02-27T13:52:40;14.80;45.50
7399;DHT22;3740;50.700;7.184;2023-02-27T13:55:26;15.10;45.70
7399;DHT22;3740;50.700;7.184;2023-02-27T13:57:59;15.00;44.10
7399;DHT22;3740;50.700;7.184;2023-02-27T14:00:31;14.50;43.60
7399;DHT22;3740;50.700;7.184;2023-02-27T14:03:08;13.80;43.50
7399;DHT22;3740;50.700;7.184;2023-02-27T14:05:44;13.20;45.70
7399;DHT22;3740;50.700;7.184;2023-02-27T14:08:27;12.90;45.30
7399;DHT22;3740;50.700;7.184;2023-02-27T14:16:11;13.00;46.90
7399;DHT22;3740;50.700;7.184;2023-02-27T14:18:55;12.90;46.40
7399;DHT22;3740;50.700;7.184;2023-02-27T14:24:16;13.30;47.30
7399;DHT22;3740;50.700;7.184;2023-02-27T14:26:43;13.30;45.60
7399;DHT22;3740;50.700;7.184;2023-02-27T14:29:19;12.90;44.90
7399;DHT22;3740;50.700;7.184;2023-02-27T14:31:46;12.70;46.30
7399;DHT22;3740;50.700;7.184;2023-02-27T14:34:18;12.50;46.20
7399;DHT22;3740;50.700;7.184;2023-02-27T14:37:05;12.40;45.20
7399;DHT22;3740;50.700;7.184;2023-02-27T14:39:36;11.90;48.00
7399;DHT22;3740;50.700;7.184;2023-02-27T14:44:50;12.30;48.70
7399;DHT22;3740;50.700;7.184;2023-02-27T14:47:30;12.50;48.30
7399;DHT22;3740;50.700;7.184;2023-02-27T14:49:57;12.70;47.00
7399;DHT22;3740;50.700;7.184;2023-02-27T14:52:29;12.60;45.50
7399;DHT22;3740;50.700;7.184;2023-02-27T14:55:19;12.50;45.30
7399;DHT22;3740;50.700;7.184;2023-02-27T15:03:43;12.30;46.50
7399;DHT22;3740;50.700;7.184;2023-02-27T15:06:21;12.40;46.50
7399;DHT22;3740;50.700;7.184;2023-02-27T15:08:52;12.30;45.90
7399;DHT22;3740;50.700;7.184;2023-02-27T15:11:22;12.20;46.80
7399;DHT22;3740;50.700;7.184;2023-02-27T15:14:00;12.00;45.10
7399;DHT22;3740;50.700;7.184;2023-02-27T15:16:36;11.80;45.50
7399;DHT22;3740;50.700;7.184;2023-02-27T15:19:15;12.50;48.40
7399;DHT22;3740;50.700;7.184;2023-02-27T15:21:47;11.20;48.30
7399;DHT22;3740;50.700;7.184;2023-02-27T15:24:23;10.90;48.50
7399;DHT22;3740;50.700;7.184;2023-02-27T15:26:57;10.70;48.40
7399;DHT22;3740;50.700;7.184;2023-02-27T15:29:29;10.70;48.80
7399;DHT22;3740;50.700;7.184;2023-02-27T15:31:56;10.90;48.60
7399;DHT22;3740;50.700;7.184;2023-02-27T15:34:21;10.90;49.10
7399;DHT22;3740;50.700;7.184;2023-02-27T15:36:54;11.20;49.20
7399;DHT22;3740;50.700;7.184;2023-02-27T15:39:22;11.50;49.10
7399;DHT22;3740;50.700;7.184;2023-02-27T15:41:54;11.70;47.80
7399;DHT22;3740;50.700;7.184;2023-02-27T15:44:25;11.70;48.90
7399;DHT22;3740;50.700;7.184;2023-02-27T15:46:52;11.50;47.60
7399;DHT22;3740;50.700;7.184;2023-02-27T15:49:20;11.40;46.80
7399;DHT22;3740;50.700;7.184;2023-02-27T15:52:12;11.20;48.50
7399;DHT22;3740;50.700;7.184;2023-02-27T15:54:46;11.00;50.90
7399;DHT22;3740;50.700;7.184;2023-02-27T15:57:13;10.80;51.10
7399;DHT22;3740;50.700;7.184;2023-02-27T15:59:41;10.80;51.70
7399;DHT22;3740;50.700;7.184;2023-02-27T16:02:32;10.60;48.00
7399;DHT22;3740;50.700;7.184;2023-02-27T16:05:02;10.40;48.50
7399;DHT22;3740;50.700;7.184;2023-02-27T16:07:27;10.10;52.80
7399;DHT22;3740;50.700;7.184;2023-02-27T16:10:05;10.20;52.80
7399;DHT22;3740;50.700;7.184;2023-02-27T16:12:36;10.50;51.50
7399;DHT22;3740;50.700;7.184;2023-02-27T16:15:30;10.20;51.60
7399;DHT22;3740;50.700;7.184;2023-02-27T16:23:18;9.20;50.20
7399;DHT22;3740;50.700;7.184;2023-02-27T16:28:32;8.90;52.90
7399;DHT22;3740;50.700;7.184;2023-02-27T16:30:58;9.00;54.80
7399;DHT22;3740;50.700;7.184;2023-02-27T16:33:26;8.90;55.40
7399;DHT22;3740;50.700;7.184;2023-02-27T16:36:14;8.90;56.70
7399;DHT22;3740;50.700;7.184;2023-02-27T16:38:41;8.80;57.90
7399;DHT22;3740;50.700;7.184;2023-02-27T16:41:09;8.80;55.10
7399;DHT22;3740;50.700;7.184;2023-02-27T16:43:35;8.70;56.60
7399;DHT22;3740;50.700;7.184;2023-02-27T16:46:01;8.70;57.50
7399;DHT22;3740;50.700;7.184;2023-02-27T16:48:26;8.70;58.00
7399;DHT22;3740;50.700;7.184;2023-02-27T16:50:52;8.60;58.40
7399;DHT22;3740;50.700;7.184;2023-02-27T16:53:17;8.50;58.50
7399;DHT22;3740;50.700;7.184;2023-02-27T16:55:46;8.40;58.70
7399;DHT22;3740;50.700;7.184;2023-02-27T16:58:15;8.40;55.80
7399;DHT22;3740;50.700;7.184;2023-02-27T17:00:41;8.30;54.70
7399;DHT22;3740;50.700;7.184;2023-02-27T17:03:07;8.10;56.30
7399;DHT22;3740;50.700;7.184;2023-02-27T17:05:33;7.80;56.50
7399;DHT22;3740;50.700;7.184;2023-02-27T17:07:59;7.80;55.50
7399;DHT22;3740;50.700;7.184;2023-02-27T17:10:25;7.70;57.20
7399;DHT22;3740;50.700;7.184;2023-02-27T17:12:51;7.60;55.80
7399;DHT22;3740;50.700;7.184;2023-02-27T17:15:17;7.50;56.60
7399;DHT22;3740;50.700;7.184;2023-02-27T17:17:43;7.40;56.20
7399;DHT22;3740;50.700;7.184;2023-02-27T17:20:11;7.30;56.60
7399;DHT22;3740;50.700;7.184;2023-02-27T17:22:39;7.40;57.40
7399;DHT22;3740;50.700;7.184;2023-02-27T17:25:06;7.30;56.60
7399;DHT22;3740;50.700;7.184;2023-02-27T17:27:31;7.20;56.80
7399;DHT22;3740;50.700;7.184;2023-02-27T17:29:57;7.20;57.90
7399;DHT22;3740;50.700;7.184;2023-02-27T17:32:22;7.10;57.60
7399;DHT22;3740;50.700;7.184;2023-02-27T17:34:52;7.10;58.80
7399;DHT22;3740;50.700;7.184;2023-02-27T17:37:18;7.10;57.20
7399;DHT22;3740;50.700;7.184;2023-02-27T17:39:43;7.10;57.20
7399;DHT22;3740;50.700;7.184;2023-02-27T17:42:09;6.80;57.90
7399;DHT22;3740;50.700;7.184;2023-02-27T17:44:37;6.70;59.70
7399;DHT22;3740;50.700;7.184;2023-02-27T17:47:02;6.70;58.40
7399;DHT22;3740;50.700;7.184;2023-02-27T17:49:28;6.70;58.10
7399;DHT22;3740;50.700;7.184;2023-02-27T17:51:53;6.70;59.00
7399;DHT22;3740;50.700;7.184;2023-02-27T17:54:19;6.50;59.60
7399;DHT22;3740;50.700;7.184;2023-02-27T17:56:44;6.40;62.40
7399;DHT22;3740;50.700;7.184;2023-02-27T17:59:10;6.10;63.70
7399;DHT22;3740;50.700;7.184;2023-02-27T18:01:35;6.10;65.90
7399;DHT22;3740;50.700;7.184;2023-02-27T18:04:01;6.10;67.60
7399;DHT22;3740;50.700;7.184;2023-02-27T18:06:27;6.40;69.20
7399;DHT22;3740;50.700;7.184;2023-02-27T18:08:53;6.40;69.00
7399;DHT22;3740;50.700;7.184;2023-02-27T18:11:20;6.20;65.20
7399;DHT22;3740;50.700;7.184;2023-02-27T18:13:46;5.90;66.70
7399;DHT22;3740;50.700;7.184;2023-02-27T18:16:12;5.60;68.70
7399;DHT22;3740;50.700;7.184;2023-02-27T18:18:39;5.50;71.60
7399;DHT22;3740;50.700;7.184;2023-02-27T18:21:17;5.50;72.90
7399;DHT22;3740;50.700;7.184;2023-02-27T18:23:45;5.40;72.70
7399;DHT22;3740;50.700;7.184;2023-02-27T18:26:17;5.30;74.90
7399;DHT22;3740;50.700;7.184;2023-02-27T18:28:42;5.30;75.30
7399;DHT22;3740;50.700;7.184;2023-02-27T18:31:26;5.20;75.80
7399;DHT22;3740;50.700;7.184;2023-02-27T18:33:52;5.10;77.50
7399;DHT22;3740;50.700;7.184;2023-02-27T18:36:18;5.10;79.60
7399;DHT22;3740;50.700;7.184;2023-02-27T18:38:44;5.20;81.60
7399;DHT22;3740;50.700;7.184;2023-02-27T18:41:11;5.20;84.90
7399;DHT22;3740;50.700;7.184;2023-02-27T18:43:38;5.20;86.90
7399;DHT22;3740;50.700;7.184;2023-02-27T18:46:04;5.10;88.60
7399;DHT22;3740;50.700;7.184;2023-02-27T18:48:31;5.00;89.70
7399;DHT22;3740;50.700;7.184;2023-02-27T18:51:02;4.90;90.80